createdAt,value
2019-05-19T00:01:48.646Z,10.70
2019-05-19T00:04:16.221Z,10.80
2019-05-19T00:06:43.931Z,10.70
2019-05-19T00:09:11.480Z,10.80
2019-05-19T00:11:39.034Z,10.70
2019-05-19T00:14:06.777Z,10.60
2019-05-19T00:16:34.325Z,10.40
2019-05-19T00:19:01.917Z,10.30
2019-05-19T00:21:29.469Z,10.10
2019-05-19T00:23:59.693Z,9.90
2019-05-19T00:26:26.536Z,9.70
2019-05-19T00:28:54.064Z,9.60
2019-05-19T00:31:21.692Z,9.40
2019-05-19T00:33:49.427Z,9.30
2019-05-19T00:36:19.538Z,9.20
2019-05-19T00:38:46.337Z,9.20
2019-05-19T00:41:13.919Z,9.10
2019-05-19T00:43:41.469Z,9.00
2019-05-19T00:46:10.042Z,9.00
2019-05-19T00:48:37.623Z,9.10
2019-05-19T00:51:05.176Z,9.10
2019-05-19T00:53:32.759Z,9.20
2019-05-19T00:56:01.194Z,9.20
2019-05-19T00:58:29.839Z,9.30
2019-05-19T01:00:57.434Z,9.50
2019-05-19T01:03:24.970Z,9.50
2019-05-19T01:05:52.530Z,9.60
2019-05-19T01:08:20.187Z,9.60
2019-05-19T01:10:47.762Z,9.50
2019-05-19T01:13:15.345Z,9.40
2019-05-19T01:15:42.895Z,9.40
2019-05-19T01:18:10.451Z,9.40
2019-05-19T01:20:38.099Z,9.30
2019-05-19T01:23:05.639Z,9.30
2019-05-19T01:25:33.393Z,9.20
2019-05-19T01:28:00.920Z,9.10
2019-05-19T01:30:28.448Z,9.00
2019-05-19T01:32:56.218Z,9.00
2019-05-19T01:35:23.765Z,9.00
2019-05-19T01:37:51.313Z,9.00
2019-05-19T01:40:18.903Z,9.10
2019-05-19T01:42:46.467Z,9.10
2019-05-19T01:45:14.140Z,9.40
2019-05-19T01:47:41.725Z,9.10
2019-05-19T01:50:17.618Z,9.10
2019-05-19T01:52:38.648Z,9.10
2019-05-19T01:55:07.624Z,9.10
2019-05-19T01:57:35.163Z,9.10
2019-05-19T02:00:03.408Z,9.10
2019-05-19T02:02:31.242Z,9.00
2019-05-19T02:04:58.787Z,8.90
2019-05-19T02:07:26.366Z,8.80
2019-05-19T02:09:53.964Z,8.70
2019-05-19T02:12:21.513Z,8.60
2019-05-19T02:14:49.072Z,8.70
2019-05-19T02:17:16.839Z,8.70
2019-05-19T02:19:44.383Z,8.70
2019-05-19T02:22:11.948Z,8.70
2019-05-19T02:24:39.524Z,8.70
2019-05-19T02:27:07.053Z,8.60
2019-05-19T02:29:34.659Z,8.60
2019-05-19T02:32:02.282Z,8.70
2019-05-19T02:34:29.838Z,8.80
2019-05-19T02:36:57.417Z,8.80
2019-05-19T02:39:24.984Z,8.80
2019-05-19T02:41:53.168Z,8.70
2019-05-19T02:44:23.785Z,8.70
2019-05-19T02:46:52.642Z,8.70
2019-05-19T02:49:21.716Z,8.70
2019-05-19T02:51:50.348Z,8.70
2019-05-19T02:54:19.781Z,8.70
2019-05-19T02:56:48.140Z,8.80
2019-05-19T02:59:16.015Z,8.70
2019-05-19T03:02:04.414Z,8.70
2019-05-19T03:04:32.118Z,8.60
2019-05-19T03:06:59.668Z,8.50
2019-05-19T03:09:27.204Z,8.50
2019-05-19T03:11:54.941Z,8.40
2019-05-19T03:14:22.491Z,8.40
2019-05-19T03:16:50.035Z,8.20
2019-05-19T03:19:17.759Z,8.10
2019-05-19T03:21:45.302Z,7.90
2019-05-19T03:24:12.858Z,7.80
2019-05-19T03:26:40.435Z,7.70
2019-05-19T03:29:09.286Z,7.60
2019-05-19T03:31:43.805Z,7.50
2019-05-19T03:34:11.492Z,7.50
2019-05-19T03:36:39.047Z,7.40
2019-05-19T03:39:06.755Z,7.30
2019-05-19T03:41:34.299Z,7.30
2019-05-19T03:44:01.836Z,7.20
2019-05-19T03:46:29.599Z,7.20
2019-05-19T03:48:57.144Z,7.20
2019-05-19T03:51:31.029Z,7.10
2019-05-19T03:53:54.104Z,7.10
2019-05-19T03:56:21.659Z,7.10
2019-05-19T03:58:49.182Z,7.20
2019-05-19T04:01:16.796Z,7.20
2019-05-19T04:03:44.366Z,7.10
2019-05-19T04:06:11.960Z,7.20
2019-05-19T04:08:39.496Z,7.30
2019-05-19T04:11:07.032Z,7.30
2019-05-19T04:13:34.605Z,7.30
2019-05-19T04:16:02.185Z,7.50
2019-05-19T04:18:29.733Z,7.60
2019-05-19T04:20:57.287Z,7.60
2019-05-19T04:23:24.869Z,7.70
2019-05-19T04:25:52.576Z,7.70
2019-05-19T04:28:20.149Z,7.90
2019-05-19T04:30:47.699Z,8.10
2019-05-19T04:33:15.296Z,8.30
2019-05-19T04:35:42.832Z,8.40
2019-05-19T04:38:10.457Z,8.50
2019-05-19T04:40:38.042Z,8.50
2019-05-19T04:43:05.624Z,8.60
2019-05-19T04:45:33.214Z,8.60
2019-05-19T04:48:00.752Z,8.70
2019-05-19T04:50:28.321Z,8.80
2019-05-19T04:52:55.881Z,8.90
2019-05-19T04:55:23.426Z,9.00
2019-05-19T04:57:50.982Z,9.10
2019-05-19T05:00:18.528Z,9.20
2019-05-19T05:02:46.189Z,9.30
2019-05-19T05:05:14.723Z,9.40
2019-05-19T05:07:42.287Z,9.50
2019-05-19T05:10:10.931Z,9.60
2019-05-19T05:12:38.677Z,9.70
2019-05-19T05:15:06.765Z,9.70
2019-05-19T05:17:34.309Z,9.80
2019-05-19T05:20:01.911Z,9.80
2019-05-19T05:22:29.502Z,10.00
2019-05-19T05:24:57.302Z,10.10
2019-05-19T05:27:24.852Z,10.20
2019-05-19T05:29:52.388Z,10.40
2019-05-19T05:32:19.985Z,10.60
2019-05-19T05:34:47.592Z,10.80
2019-05-19T05:37:15.339Z,11.00
2019-05-19T05:39:42.919Z,11.20
2019-05-19T05:42:10.484Z,11.40
2019-05-19T05:44:38.189Z,11.60
2019-05-19T05:47:05.758Z,11.70
2019-05-19T05:49:33.357Z,11.80
2019-05-19T05:52:00.939Z,11.90
2019-05-19T05:54:28.488Z,12.00
2019-05-19T05:56:56.071Z,12.00
2019-05-19T05:59:23.682Z,12.00
2019-05-19T06:01:51.273Z,12.20
2019-05-19T06:04:18.787Z,12.40
2019-05-19T06:06:46.353Z,12.80
2019-05-19T06:09:13.912Z,13.20
2019-05-19T06:11:41.491Z,13.70
2019-05-19T06:14:09.094Z,14.10
2019-05-19T06:16:36.647Z,14.70
2019-05-19T06:19:04.211Z,15.10
2019-05-19T06:21:31.770Z,15.80
2019-05-19T06:23:59.388Z,16.40
2019-05-19T06:26:26.921Z,17.10
2019-05-19T06:28:54.495Z,18.00
2019-05-19T06:31:22.217Z,18.70
2019-05-19T06:33:51.179Z,19.40
2019-05-19T06:36:18.711Z,19.40
2019-05-19T06:38:46.343Z,19.50
2019-05-19T06:41:13.926Z,19.70
2019-05-19T06:43:41.528Z,19.80
2019-05-19T06:46:09.121Z,20.20
2019-05-19T06:48:36.673Z,20.80
2019-05-19T06:51:04.634Z,20.30
2019-05-19T06:53:32.148Z,20.50
2019-05-19T06:55:59.700Z,20.50
2019-05-19T06:58:27.288Z,20.90
2019-05-19T07:00:54.890Z,21.10
2019-05-19T07:03:22.468Z,21.00
2019-05-19T07:05:50.228Z,20.70
2019-05-19T07:08:17.769Z,20.90
2019-05-19T07:10:45.357Z,20.60
2019-05-19T07:13:12.927Z,21.00
2019-05-19T07:15:40.510Z,21.40
2019-05-19T07:18:08.102Z,22.00
2019-05-19T07:20:35.843Z,22.60
2019-05-19T07:23:03.493Z,22.60
2019-05-19T07:25:31.103Z,22.80
2019-05-19T07:27:58.868Z,23.20
2019-05-19T07:30:26.437Z,23.70
2019-05-19T07:32:53.973Z,23.40
2019-05-19T07:35:21.727Z,23.20
2019-05-19T07:37:49.288Z,22.80
2019-05-19T07:40:16.840Z,23.10
2019-05-19T07:42:44.457Z,24.00
2019-05-19T07:45:12.226Z,24.20
2019-05-19T07:47:39.774Z,24.40
2019-05-19T07:50:07.558Z,24.70
2019-05-19T07:52:35.123Z,24.80
2019-05-19T07:55:02.721Z,25.30
2019-05-19T07:57:30.295Z,25.30
2019-05-19T07:59:57.879Z,25.30
2019-05-19T08:02:25.489Z,25.30
2019-05-19T08:04:53.038Z,24.90
2019-05-19T08:07:20.665Z,24.40
2019-05-19T08:09:48.244Z,24.60
2019-05-19T08:12:15.965Z,24.70
2019-05-19T08:14:43.561Z,24.70
2019-05-19T08:17:11.148Z,24.90
2019-05-19T08:19:38.691Z,25.00
2019-05-19T08:22:06.321Z,25.50
2019-05-19T08:24:33.912Z,26.10
2019-05-19T08:27:01.488Z,26.50
2019-05-19T08:29:29.105Z,26.60
2019-05-19T08:31:56.657Z,26.20
2019-05-19T08:34:24.205Z,26.30
2019-05-19T08:36:51.797Z,26.10
2019-05-19T08:39:19.343Z,26.30
2019-05-19T08:41:46.921Z,25.60
2019-05-19T08:44:14.544Z,25.50
2019-05-19T08:46:42.120Z,25.60
2019-05-19T08:49:09.710Z,26.10
2019-05-19T08:51:37.279Z,25.80
2019-05-19T08:54:14.333Z,26.40
2019-05-19T08:56:34.424Z,26.50
2019-05-19T08:59:02.013Z,26.30
2019-05-19T09:01:29.592Z,26.50
2019-05-19T09:03:57.261Z,26.50
2019-05-19T09:06:24.767Z,26.70
2019-05-19T09:08:52.594Z,27.20
2019-05-19T09:11:20.208Z,28.10
2019-05-19T09:13:47.770Z,28.90
2019-05-19T09:16:15.390Z,28.30
2019-05-19T09:18:42.963Z,28.70
2019-05-19T09:21:10.864Z,28.90
2019-05-19T09:23:38.413Z,28.60
2019-05-19T09:26:05.980Z,29.10
2019-05-19T09:28:33.644Z,28.60
2019-05-19T09:31:01.481Z,28.40
2019-05-19T09:33:29.104Z,28.30
2019-05-19T09:35:56.648Z,28.20
2019-05-19T09:38:24.342Z,27.90
2019-05-19T09:40:54.802Z,27.80
2019-05-19T09:43:22.394Z,28.10
2019-05-19T09:45:50.039Z,28.00
2019-05-19T09:48:17.546Z,28.00
2019-05-19T09:50:45.148Z,27.80
2019-05-19T09:53:12.697Z,27.10
2019-05-19T09:55:40.240Z,27.90
2019-05-19T09:58:07.974Z,27.70
2019-05-19T10:00:35.518Z,28.20
2019-05-19T10:03:03.109Z,28.30
2019-05-19T10:05:30.681Z,28.30
2019-05-19T10:07:58.233Z,27.80
2019-05-19T10:10:57.983Z,28.00
2019-05-19T10:13:25.564Z,27.80
2019-05-19T10:15:53.111Z,28.30
2019-05-19T10:18:20.664Z,28.60
2019-05-19T10:20:50.414Z,28.60
2019-05-19T10:23:17.635Z,28.30
2019-05-19T10:25:45.189Z,27.80
2019-05-19T10:28:12.966Z,28.00
2019-05-19T10:30:40.528Z,28.10
2019-05-19T10:33:08.090Z,27.90
2019-05-19T10:35:35.790Z,27.60
2019-05-19T10:38:03.379Z,27.80
2019-05-19T10:40:30.947Z,28.30
2019-05-19T10:42:58.631Z,28.70
2019-05-19T10:45:26.235Z,29.20
2019-05-19T10:47:53.778Z,28.80
2019-05-19T10:50:21.385Z,28.10
2019-05-19T10:52:49.076Z,27.80
2019-05-19T10:55:16.948Z,27.50
2019-05-19T10:57:44.523Z,26.90
2019-05-19T11:00:12.340Z,26.60
2019-05-19T11:02:39.933Z,26.90
2019-05-19T11:05:10.885Z,27.40
2019-05-19T11:07:37.141Z,27.70
2019-05-19T11:10:04.985Z,28.30
2019-05-19T11:12:32.568Z,27.90
2019-05-19T11:15:00.216Z,28.50
2019-05-19T11:17:27.842Z,29.20
2019-05-19T11:19:55.377Z,29.10
2019-05-19T11:22:22.934Z,29.30
2019-05-19T11:24:50.518Z,29.20
2019-05-19T11:27:18.087Z,29.40
2019-05-19T11:29:45.638Z,29.10
2019-05-19T11:32:13.255Z,28.40
2019-05-19T11:34:40.841Z,28.60
2019-05-19T11:37:08.392Z,29.10
2019-05-19T11:39:36.139Z,29.70
2019-05-19T11:42:03.687Z,29.80
2019-05-19T11:44:31.655Z,29.40
2019-05-19T11:46:59.254Z,29.10
2019-05-19T11:49:26.849Z,29.00
2019-05-19T11:51:54.481Z,28.50
2019-05-19T11:54:22.027Z,28.80
2019-05-19T11:56:49.612Z,29.50
2019-05-19T11:59:17.352Z,29.70
2019-05-19T12:01:44.906Z,30.10
2019-05-19T12:04:12.558Z,29.80
2019-05-19T12:06:40.216Z,30.10
2019-05-19T12:09:07.812Z,29.90
2019-05-19T12:11:35.416Z,30.00
2019-05-19T12:14:03.014Z,29.10
2019-05-19T12:16:30.588Z,28.60
2019-05-19T12:18:58.166Z,28.20
2019-05-19T12:21:25.728Z,28.30
2019-05-19T12:23:53.285Z,28.10
2019-05-19T12:26:23.450Z,28.00
2019-05-19T12:28:50.259Z,28.30
2019-05-19T12:31:17.976Z,28.40
2019-05-19T12:33:51.861Z,28.40
2019-05-19T12:36:14.894Z,28.60
2019-05-19T12:38:42.491Z,29.00
2019-05-19T12:41:10.042Z,29.40
2019-05-19T12:43:37.646Z,29.40
2019-05-19T12:46:15.648Z,28.80
2019-05-19T12:48:34.770Z,28.30
2019-05-19T12:51:02.424Z,28.00
2019-05-19T12:53:29.978Z,27.50
2019-05-19T12:55:57.573Z,26.60
2019-05-19T12:58:25.116Z,26.90
2019-05-19T13:00:52.711Z,27.30
2019-05-19T13:03:20.263Z,27.60
2019-05-19T13:05:47.805Z,28.00
2019-05-19T13:08:15.386Z,28.50
2019-05-19T13:10:42.955Z,28.90
2019-05-19T13:13:10.715Z,28.50
2019-05-19T13:15:38.294Z,27.60
2019-05-19T13:18:05.850Z,27.50
2019-05-19T13:20:33.433Z,27.10
2019-05-19T13:23:01.017Z,27.00
2019-05-19T13:25:28.757Z,26.90
2019-05-19T13:27:56.336Z,27.10
2019-05-19T13:30:23.882Z,27.60
2019-05-19T13:32:51.637Z,27.70
2019-05-19T13:35:19.194Z,28.00
2019-05-19T13:37:46.742Z,28.40
2019-05-19T13:40:14.713Z,28.90
2019-05-19T13:42:42.271Z,29.00
2019-05-19T13:45:11.924Z,29.50
2019-05-19T13:47:39.576Z,29.80
2019-05-19T13:50:07.658Z,29.50
2019-05-19T13:52:35.247Z,29.80
2019-05-19T13:55:02.915Z,30.00
2019-05-19T13:57:30.681Z,29.70
2019-05-19T13:59:58.229Z,29.60
2019-05-19T14:02:25.761Z,29.80
2019-05-19T14:04:53.375Z,29.20
2019-05-19T14:07:20.942Z,29.40
2019-05-19T14:09:48.538Z,28.90
2019-05-19T14:12:16.325Z,28.90
2019-05-19T14:14:43.880Z,29.10
2019-05-19T14:17:11.451Z,28.90
2019-05-19T14:19:39.037Z,28.90
2019-05-19T14:22:06.631Z,29.30
2019-05-19T14:24:34.237Z,29.40
2019-05-19T14:27:02.019Z,29.60
2019-05-19T14:29:29.569Z,29.30
2019-05-19T14:31:57.141Z,29.00
2019-05-19T14:34:24.812Z,29.20
2019-05-19T14:36:52.370Z,29.20
2019-05-19T14:39:19.932Z,29.40
2019-05-19T14:41:52.076Z,29.70
2019-05-19T14:44:19.623Z,29.20
2019-05-19T14:46:47.202Z,29.00
2019-05-19T14:49:15.004Z,29.20
2019-05-19T14:51:42.605Z,28.80
2019-05-19T14:54:10.196Z,28.10
2019-05-19T14:56:37.928Z,28.30
2019-05-19T14:59:05.668Z,28.60
2019-05-19T15:01:33.280Z,28.20
2019-05-19T15:04:00.882Z,28.60
2019-05-19T15:06:28.492Z,28.60
2019-05-19T15:08:56.093Z,28.90
2019-05-19T15:11:23.652Z,28.70
2019-05-19T15:13:51.398Z,28.70
2019-05-19T15:16:18.941Z,28.70
2019-05-19T15:18:46.493Z,28.30
2019-05-19T15:21:14.247Z,28.20
2019-05-19T15:23:41.828Z,27.30
2019-05-19T15:26:09.387Z,27.10
2019-05-19T15:28:37.122Z,27.20
2019-05-19T15:31:04.733Z,26.90
2019-05-19T15:33:38.135Z,26.60
2019-05-19T15:36:01.754Z,26.70
2019-05-19T15:38:29.330Z,26.80
2019-05-19T15:40:56.885Z,26.60
2019-05-19T15:43:24.793Z,26.30
2019-05-19T15:45:52.356Z,26.50
2019-05-19T15:48:19.903Z,26.40
2019-05-19T15:50:47.689Z,26.00
2019-05-19T15:53:15.244Z,26.10
2019-05-19T15:55:42.796Z,25.90
2019-05-19T15:58:16.543Z,26.00
2019-05-19T16:00:39.914Z,25.90
2019-05-19T16:03:07.513Z,25.40
2019-05-19T16:05:35.078Z,24.90
2019-05-19T16:08:02.674Z,24.90
2019-05-19T16:10:30.244Z,24.90
2019-05-19T16:12:57.874Z,24.60
2019-05-19T16:15:25.409Z,24.50
2019-05-19T16:17:52.987Z,24.60
2019-05-19T16:20:20.882Z,24.70
2019-05-19T16:22:48.485Z,24.70
2019-05-19T16:25:16.223Z,24.50
2019-05-19T16:27:43.775Z,24.30
2019-05-19T16:30:11.668Z,24.30
2019-05-19T16:32:39.255Z,24.70
2019-05-19T16:35:07.018Z,25.10
2019-05-19T16:37:34.713Z,25.60
2019-05-19T16:40:02.281Z,25.80
2019-05-19T16:42:29.855Z,25.70
2019-05-19T16:44:57.414Z,25.50
2019-05-19T16:47:24.962Z,25.10
2019-05-19T16:49:52.604Z,24.60
2019-05-19T16:52:20.200Z,24.30
2019-05-19T16:54:54.848Z,23.80
2019-05-19T16:57:22.418Z,23.60
2019-05-19T16:59:49.947Z,23.60
2019-05-19T17:02:17.822Z,23.40
2019-05-19T17:04:45.387Z,23.10
2019-05-19T17:07:12.963Z,22.90
2019-05-19T17:09:40.589Z,22.80
2019-05-19T17:12:08.200Z,22.40
2019-05-19T17:14:35.763Z,22.20
2019-05-19T17:17:03.338Z,22.20
2019-05-19T17:19:30.938Z,22.10
2019-05-19T17:21:58.572Z,22.00
2019-05-19T17:24:26.153Z,21.90
2019-05-19T17:26:53.753Z,21.70
2019-05-19T17:29:21.321Z,21.70
2019-05-19T17:31:48.982Z,21.70
2019-05-19T17:34:16.561Z,21.50
2019-05-19T17:36:44.180Z,21.30
2019-05-19T17:39:11.966Z,21.30
2019-05-19T17:41:39.537Z,21.20
2019-05-19T17:44:07.103Z,21.10
2019-05-19T17:46:34.703Z,21.00
2019-05-19T17:49:02.255Z,21.10
2019-05-19T17:51:29.836Z,21.20
2019-05-19T17:53:57.439Z,21.20
2019-05-19T17:56:26.189Z,21.20
2019-05-19T17:58:54.210Z,21.20
2019-05-19T18:01:21.799Z,21.20
2019-05-19T18:03:50.186Z,20.90
2019-05-19T18:06:17.757Z,20.70
2019-05-19T18:08:45.373Z,20.40
2019-05-19T18:11:12.955Z,20.30
2019-05-19T18:13:40.493Z,20.10
2019-05-19T18:16:08.095Z,19.90
2019-05-19T18:18:35.622Z,19.80
2019-05-19T18:21:03.303Z,19.70
2019-05-19T19:32:39.399Z,16.40
2019-05-19T19:35:07.255Z,16.40
2019-05-19T19:37:34.811Z,16.40
2019-05-19T19:40:02.483Z,16.30
2019-05-19T19:42:30.061Z,16.30
2019-05-19T19:44:57.620Z,16.30
2019-05-19T19:47:25.291Z,16.30
2019-05-19T19:49:52.878Z,16.40
2019-05-19T19:52:20.481Z,16.40
2019-05-19T19:54:48.079Z,16.40
2019-05-19T19:57:15.668Z,16.30
2019-05-19T19:59:43.260Z,16.30
2019-05-19T20:02:10.856Z,16.20
2019-05-19T20:04:38.453Z,16.10
2019-05-19T20:07:06.023Z,15.90
2019-05-19T20:09:33.614Z,15.80
2019-05-19T20:12:01.406Z,15.70
2019-05-19T20:14:28.983Z,15.60
2019-05-19T20:16:56.570Z,15.50
2019-05-19T20:19:24.238Z,15.40
2019-05-19T20:21:51.781Z,15.30
2019-05-19T20:24:19.416Z,15.30
2019-05-19T20:26:46.975Z,15.40
2019-05-19T20:29:14.650Z,15.30
2019-05-19T20:31:42.207Z,15.40
2019-05-19T20:34:09.802Z,15.30
2019-05-19T20:36:37.520Z,15.30
2019-05-19T20:39:05.578Z,15.30
2019-05-19T20:41:33.124Z,15.10
2019-05-19T20:44:00.914Z,15.10
2019-05-19T20:46:28.562Z,15.00
2019-05-19T20:48:56.157Z,15.00
2019-05-19T20:51:23.745Z,15.00
2019-05-19T20:53:53.288Z,14.90
2019-05-19T20:56:20.661Z,14.80
2019-05-19T20:58:48.239Z,14.80
2019-05-19T21:01:15.839Z,14.70
2019-05-19T21:03:43.586Z,14.70
2019-05-19T21:06:11.122Z,14.70
2019-05-19T21:08:38.686Z,14.60
2019-05-19T21:11:06.296Z,14.60
2019-05-19T21:13:33.851Z,14.50
2019-05-19T21:16:01.402Z,14.50
2019-05-19T21:18:29.007Z,14.40
2019-05-19T21:20:56.591Z,14.30
2019-05-19T21:23:24.134Z,14.20
2019-05-19T21:25:51.869Z,14.10
2019-05-19T21:28:19.447Z,13.90
2019-05-19T21:30:46.993Z,13.80
2019-05-19T21:33:14.738Z,13.70
2019-05-19T21:35:42.307Z,13.60
2019-05-19T21:38:09.900Z,13.60
2019-05-19T21:40:37.476Z,13.60
2019-05-19T21:43:05.035Z,13.60
2019-05-19T21:45:32.798Z,13.50
2019-05-19T21:48:00.353Z,13.50
2019-05-19T21:50:28.011Z,13.40
2019-05-19T21:52:55.603Z,13.40
2019-05-19T21:55:23.236Z,13.40
2019-05-19T21:57:50.739Z,13.30
2019-05-19T22:00:20.698Z,13.30
2019-05-19T22:02:48.300Z,13.30
2019-05-19T22:05:15.807Z,13.30
2019-05-19T22:08:03.598Z,13.30
2019-05-19T22:10:31.159Z,13.20
2019-05-19T22:12:58.702Z,13.20
2019-05-19T22:15:26.488Z,13.00
2019-05-19T22:17:54.064Z,12.90
2019-05-19T22:20:21.641Z,12.80
2019-05-19T22:22:49.249Z,12.80
2019-05-19T22:25:16.799Z,12.80
2019-05-19T22:27:44.344Z,12.70
2019-05-19T22:30:12.231Z,12.70
2019-05-19T22:32:39.767Z,12.60
2019-05-19T22:35:11.648Z,12.60
2019-05-19T22:37:39.246Z,12.60
2019-05-19T22:40:07.036Z,12.60
2019-05-19T22:42:34.539Z,12.50
2019-05-19T22:45:02.087Z,12.50
2019-05-19T22:47:29.831Z,12.50
2019-05-19T22:49:57.378Z,12.70
2019-05-19T22:52:24.919Z,12.70
2019-05-19T22:54:52.532Z,12.80
2019-05-19T22:57:20.066Z,12.80
2019-05-19T22:59:47.622Z,12.80
2019-05-19T23:02:15.192Z,12.90
2019-05-19T23:04:42.742Z,13.00
2019-05-19T23:07:10.480Z,13.00
2019-05-19T23:09:38.043Z,13.00
2019-05-19T23:12:05.591Z,13.00
2019-05-19T23:14:33.170Z,13.00
2019-05-19T23:17:00.742Z,13.00
2019-05-19T23:19:28.510Z,13.00
2019-05-19T23:21:56.054Z,12.80
2019-05-19T23:24:23.591Z,12.70
2019-05-19T23:26:51.195Z,12.50
2019-05-19T23:29:18.920Z,12.40
2019-05-19T23:31:46.495Z,12.40
2019-05-19T23:34:14.042Z,12.30
2019-05-19T23:36:41.767Z,12.20
2019-05-19T23:39:09.352Z,12.20
2019-05-19T23:41:36.955Z,12.20
2019-05-19T23:44:04.464Z,12.20
2019-05-19T23:46:32.024Z,12.30
2019-05-19T23:48:59.630Z,12.30
2019-05-19T23:51:27.355Z,12.40
2019-05-19T23:53:54.882Z,12.40
2019-05-19T23:56:22.450Z,12.50
2019-05-19T23:58:50.057Z,12.60
